createdAt,value
2023-03-11T00:02:14.388Z,2.00
2023-03-11T00:06:17.884Z,2.47
2023-03-11T00:10:30.004Z,3.53
2023-03-11T00:14:33.786Z,3.88
2023-03-11T00:18:37.297Z,2.65
2023-03-11T00:22:40.724Z,2.05
2023-03-11T00:26:44.176Z,1.38
2023-03-11T00:30:47.694Z,1.90
2023-03-11T00:34:51.225Z,1.48
2023-03-11T00:38:56.314Z,2.88
2023-03-11T00:43:00.891Z,2.00
2023-03-11T00:47:05.148Z,2.60
2023-03-11T00:51:14.621Z,3.08
2023-03-11T00:55:23.457Z,2.22
2023-03-11T00:59:27.488Z,2.95
2023-03-11T01:03:31.118Z,2.17
2023-03-11T01:07:34.563Z,3.63
2023-03-11T01:11:40.393Z,1.80
2023-03-11T01:15:44.964Z,2.63
2023-03-11T01:19:49.510Z,3.58
2023-03-11T01:23:55.281Z,2.80
2023-03-11T01:27:59.500Z,2.03
2023-03-11T01:32:02.975Z,2.75
2023-03-11T01:36:07.036Z,2.80
2023-03-11T01:40:20.446Z,2.17
2023-03-11T01:44:24.255Z,1.50
2023-03-11T01:48:29.453Z,0.80
2023-03-11T01:52:34.054Z,2.50
2023-03-11T01:56:39.116Z,1.60
2023-03-11T02:00:43.149Z,2.42
2023-03-11T02:04:49.191Z,1.45
2023-03-11T02:08:55.397Z,3.45
2023-03-11T02:12:59.837Z,1.70
2023-03-11T02:17:06.048Z,2.55
2023-03-11T02:21:28.415Z,2.05
2023-03-11T02:26:15.254Z,1.77
2023-03-11T02:30:23.068Z,2.55
2023-03-11T02:34:30.442Z,1.95
2023-03-11T02:38:34.089Z,1.70
2023-03-11T02:42:37.614Z,1.48
2023-03-11T02:46:43.035Z,1.45
2023-03-11T02:54:53.772Z,1.48
2023-03-11T02:58:57.214Z,0.93
2023-03-11T03:03:01.609Z,1.23
2023-03-11T03:07:05.530Z,1.27
2023-03-11T03:11:09.036Z,1.48
2023-03-11T03:15:12.876Z,3.03
2023-03-11T03:19:16.406Z,2.70
2023-03-11T03:23:20.996Z,2.72
2023-03-11T03:27:24.611Z,2.25
2023-03-11T03:31:29.326Z,1.45
2023-03-11T03:35:34.885Z,1.48
2023-03-11T03:39:43.087Z,2.00
2023-03-11T03:43:48.373Z,1.23
2023-03-11T03:47:52.108Z,0.93
2023-03-11T03:51:57.470Z,2.92
2023-03-11T03:56:10.569Z,2.58
2023-03-11T04:00:16.094Z,2.50
2023-03-11T04:04:25.024Z,1.10
2023-03-11T04:08:28.834Z,1.10
2023-03-11T04:12:34.541Z,2.00
2023-03-11T04:16:39.752Z,2.97
2023-03-11T04:20:48.728Z,1.30
2023-03-11T04:24:53.626Z,1.83
2023-03-11T04:28:57.237Z,2.03
2023-03-11T04:33:02.599Z,1.60
2023-03-11T04:37:06.927Z,2.67
2023-03-11T04:41:12.918Z,2.13
2023-03-11T04:45:18.786Z,1.20
2023-03-11T04:49:24.325Z,1.63
2023-03-11T04:53:29.341Z,1.33
2023-03-11T04:57:33.634Z,1.42
2023-03-11T05:01:37.992Z,0.82
2023-03-11T05:05:44.709Z,1.83
2023-03-11T05:09:48.912Z,1.20
2023-03-11T05:13:52.648Z,1.42
2023-03-11T05:17:56.875Z,1.33
2023-03-11T05:22:02.726Z,1.60
2023-03-11T05:26:07.085Z,1.88
2023-03-11T05:30:11.636Z,1.00
2023-03-11T05:34:19.154Z,1.23
2023-03-11T05:38:22.686Z,2.15
2023-03-11T05:42:29.187Z,1.15
2023-03-11T05:46:34.465Z,2.63
2023-03-11T05:50:38.874Z,1.48
2023-03-11T05:54:43.275Z,1.98
2023-03-11T05:58:48.264Z,1.20
2023-03-11T06:02:51.990Z,1.38
2023-03-11T06:06:56.550Z,1.95
2023-03-11T06:11:05.791Z,0.80
2023-03-11T06:19:14.282Z,1.60
2023-03-11T06:23:22.135Z,1.20
2023-03-11T06:27:25.750Z,1.10
2023-03-11T06:31:30.739Z,1.75
2023-03-11T06:35:41.201Z,1.58
2023-03-11T06:39:45.636Z,0.93
2023-03-11T06:43:55.645Z,1.27
2023-03-11T06:47:59.168Z,1.92
2023-03-11T06:52:03.006Z,1.20
2023-03-11T06:56:08.308Z,1.30
2023-03-11T07:00:18.680Z,1.67
2023-03-11T07:04:28.199Z,1.20
2023-03-11T07:08:32.158Z,1.63
2023-03-11T07:12:36.907Z,0.90
2023-03-11T07:16:41.134Z,0.70
2023-03-11T07:20:52.119Z,1.50
2023-03-11T07:24:55.553Z,2.03
2023-03-11T07:28:59.502Z,1.05
2023-03-11T07:33:02.929Z,1.30
2023-03-11T07:37:07.207Z,1.20
2023-03-11T07:41:12.292Z,1.00
2023-03-11T07:45:16.362Z,1.75
2023-03-11T07:49:20.049Z,2.22
2023-03-11T07:53:24.829Z,1.42
2023-03-11T07:57:28.449Z,0.73
2023-03-11T08:01:40.859Z,1.40
2023-03-11T08:05:44.455Z,1.15
2023-03-11T08:09:47.976Z,1.30
2023-03-11T08:13:51.898Z,1.35
2023-03-11T08:17:55.363Z,1.90
2023-03-11T08:22:01.350Z,1.38
2023-03-11T08:26:09.936Z,1.80
2023-03-11T08:30:13.935Z,0.80
2023-03-11T08:34:18.144Z,0.68
2023-03-11T08:38:22.083Z,0.90
2023-03-11T08:42:26.523Z,0.43
2023-03-11T08:46:37.719Z,0.80
2023-03-11T08:50:53.880Z,0.90
2023-03-11T08:54:58.039Z,0.93
2023-03-11T08:59:02.669Z,0.90
2023-03-11T09:03:07.125Z,1.00
2023-03-11T09:07:13.177Z,0.82
2023-03-11T09:11:18.193Z,1.33
2023-03-11T09:15:22.769Z,1.63
2023-03-11T09:19:26.256Z,2.08
2023-03-11T09:23:29.800Z,1.27
2023-03-11T09:27:33.265Z,1.60
2023-03-11T09:31:36.912Z,0.90
2023-03-11T09:35:40.426Z,0.90
2023-03-11T09:39:43.845Z,1.23
2023-03-11T09:44:03.369Z,1.02
2023-03-11T09:48:35.535Z,1.20
2023-03-11T09:52:46.664Z,1.63
2023-03-11T09:56:51.191Z,1.30
2023-03-11T10:00:55.419Z,2.65
2023-03-11T10:05:10.193Z,1.20
2023-03-11T10:09:25.530Z,1.15
2023-03-11T10:13:28.998Z,1.08
2023-03-11T10:17:47.326Z,1.33
2023-03-11T10:22:05.867Z,1.00
2023-03-11T10:26:23.530Z,1.98
2023-03-11T10:30:40.562Z,1.60
2023-03-11T10:34:55.124Z,1.30
2023-03-11T10:38:58.993Z,1.20
2023-03-11T10:43:16.833Z,1.70
2023-03-11T10:47:23.236Z,1.00
2023-03-11T10:51:34.528Z,0.88
2023-03-11T10:55:50.546Z,1.33
2023-03-11T10:59:56.650Z,2.10
2023-03-11T11:04:02.595Z,1.58
2023-03-11T11:08:16.156Z,1.00
2023-03-11T11:12:21.766Z,2.10
2023-03-11T11:16:25.676Z,2.92
2023-03-11T11:20:31.709Z,1.15
2023-03-11T11:24:35.363Z,1.30
2023-03-11T11:28:38.813Z,2.60
2023-03-11T11:32:43.910Z,1.25
2023-03-11T11:36:47.776Z,0.98
2023-03-11T11:40:53.347Z,1.75
2023-03-11T11:45:02.613Z,1.38
2023-03-11T11:49:23.096Z,0.98
2023-03-11T11:53:35.342Z,1.63
2023-03-11T11:57:38.826Z,1.27
2023-03-11T12:01:48.932Z,1.00
2023-03-11T12:06:10.470Z,1.52
2023-03-11T12:10:35.669Z,1.40
2023-03-11T12:14:58.258Z,1.55
2023-03-11T12:19:10.968Z,1.27
2023-03-11T12:23:39.199Z,1.60
2023-03-11T12:27:50.331Z,1.23
2023-03-11T12:31:55.989Z,0.98
2023-03-11T12:36:00.601Z,1.10
2023-03-11T12:40:49.696Z,1.15
2023-03-11T12:44:54.201Z,1.75
2023-03-11T12:49:13.855Z,1.10
2023-03-11T12:53:19.983Z,4.80
2023-03-11T12:57:35.987Z,4.00
2023-03-11T13:01:51.764Z,2.57
2023-03-11T13:06:22.315Z,2.40
2023-03-11T13:10:43.625Z,1.55
2023-03-11T13:14:47.040Z,2.60
2023-03-11T13:18:52.070Z,2.17
2023-03-11T13:23:02.022Z,1.63
2023-03-11T13:27:18.654Z,1.83
2023-03-11T13:31:34.029Z,1.27
2023-03-11T13:35:54.957Z,3.13
2023-03-11T13:40:07.794Z,3.38
2023-03-11T13:44:32.102Z,2.00
2023-03-11T13:48:46.072Z,3.78
2023-03-11T13:52:53.965Z,3.15
2023-03-11T13:57:00.316Z,3.13
2023-03-11T14:01:03.906Z,3.08
2023-03-11T14:05:13.975Z,2.80
2023-03-11T14:09:22.493Z,2.92
2023-03-11T14:13:38.661Z,3.45
2023-03-11T14:21:48.474Z,2.85
2023-03-11T14:26:09.690Z,1.90
2023-03-11T14:30:23.517Z,3.92
2023-03-11T14:34:30.293Z,2.10
2023-03-11T14:38:34.194Z,2.20
2023-03-11T14:42:41.036Z,2.38
2023-03-11T14:46:45.789Z,2.53
2023-03-11T14:50:50.428Z,2.38
2023-03-11T14:54:55.447Z,5.35
2023-03-11T14:59:27.136Z,2.00
2023-03-11T15:03:34.137Z,3.38
2023-03-11T15:07:38.714Z,2.05
2023-03-11T15:11:52.331Z,3.30
2023-03-11T15:16:01.327Z,2.67
2023-03-11T15:20:07.684Z,3.10
2023-03-11T15:24:25.878Z,2.15
2023-03-11T15:28:33.398Z,1.92
2023-03-11T15:32:40.443Z,3.33
2023-03-11T15:36:49.810Z,3.13
2023-03-11T15:40:59.238Z,2.03
2023-03-11T15:45:13.561Z,2.88
2023-03-11T15:49:17.811Z,2.38
2023-03-11T15:53:25.175Z,1.98
2023-03-11T15:57:30.105Z,2.60
2023-03-11T16:01:33.602Z,3.50
2023-03-11T16:05:37.195Z,1.92
2023-03-11T16:09:40.681Z,1.85
2023-03-11T16:13:44.251Z,1.70
2023-03-11T16:17:50.307Z,2.42
2023-03-11T16:21:53.915Z,2.22
2023-03-11T16:26:04.820Z,1.70
2023-03-11T16:30:09.433Z,1.80
2023-03-11T16:34:12.958Z,2.38
2023-03-11T16:38:18.011Z,1.20
2023-03-11T16:42:24.886Z,2.60
2023-03-11T16:46:28.407Z,1.65
2023-03-11T16:50:34.069Z,2.35
2023-03-11T16:54:37.939Z,2.40
2023-03-11T16:58:42.171Z,1.30
2023-03-11T17:02:46.442Z,1.65
2023-03-11T17:06:50.941Z,1.88
2023-03-11T17:10:54.370Z,1.63
2023-03-11T17:14:58.201Z,1.58
2023-03-11T17:19:02.259Z,2.33
2023-03-11T17:23:05.853Z,1.45
2023-03-11T17:27:09.353Z,3.00
2023-03-11T17:31:15.204Z,1.80
2023-03-11T17:35:18.804Z,2.53
2023-03-11T17:39:22.292Z,3.58
2023-03-11T17:43:25.803Z,3.72
2023-03-11T17:47:32.317Z,4.05
2023-03-11T17:51:35.728Z,3.05
2023-03-11T17:55:40.898Z,2.53
2023-03-11T17:59:44.373Z,4.88
2023-03-11T18:03:48.152Z,3.53
2023-03-11T18:07:51.984Z,2.58
2023-03-11T18:11:55.460Z,3.75
2023-03-11T18:16:04.652Z,3.95
2023-03-11T18:20:09.697Z,2.67
2023-03-11T18:24:13.293Z,2.20
2023-03-11T18:28:16.694Z,2.63
2023-03-11T18:32:21.132Z,3.15
2023-03-11T18:36:30.206Z,2.15
2023-03-11T18:40:33.668Z,2.88
2023-03-11T18:44:37.157Z,2.67
2023-03-11T18:48:40.667Z,2.85
2023-03-11T18:52:44.148Z,2.72
2023-03-11T18:56:47.601Z,2.33
2023-03-11T19:00:51.071Z,2.92
2023-03-11T19:04:54.695Z,4.47
2023-03-11T19:08:58.781Z,3.53
2023-03-11T19:13:02.183Z,4.45
2023-03-11T19:17:06.621Z,2.60
2023-03-11T19:21:13.011Z,2.78
2023-03-11T19:25:16.541Z,3.35
2023-03-11T19:29:20.723Z,3.78
2023-03-11T19:33:25.457Z,4.55
2023-03-11T19:37:30.927Z,3.45
2023-03-11T19:41:34.455Z,4.35
2023-03-11T19:45:40.590Z,3.95
2023-03-11T19:49:44.049Z,7.13
2023-03-11T19:53:47.658Z,4.60
2023-03-11T19:57:51.176Z,4.47
2023-03-11T20:01:54.607Z,3.28
2023-03-11T20:06:05.803Z,3.95
2023-03-11T20:10:10.133Z,5.18
2023-03-11T20:14:14.415Z,3.90
2023-03-11T20:18:18.394Z,4.85
2023-03-11T20:22:23.873Z,4.35
2023-03-11T20:26:27.365Z,5.93
2023-03-11T20:30:30.832Z,7.00
2023-03-11T20:34:34.425Z,6.70
2023-03-11T20:38:38.300Z,5.43
2023-03-11T20:42:47.393Z,5.00
2023-03-11T20:46:51.198Z,5.82
2023-03-11T20:50:54.824Z,5.40
2023-03-11T20:54:58.451Z,4.05
2023-03-11T20:59:07.376Z,5.63
2023-03-11T21:03:11.102Z,3.53
2023-03-11T21:07:14.913Z,5.05
2023-03-11T21:11:18.818Z,5.22
2023-03-11T21:15:24.631Z,6.03
2023-03-11T21:19:28.326Z,4.75
2023-03-11T21:23:32.005Z,4.53
2023-03-11T21:27:36.413Z,4.47
2023-03-11T21:31:40.010Z,5.43
2023-03-11T21:35:43.561Z,5.07
2023-03-11T21:39:47.127Z,4.82
2023-03-11T21:43:51.511Z,5.05
2023-03-11T21:47:55.076Z,4.88
2023-03-11T21:52:01.667Z,5.13
2023-03-11T21:56:06.643Z,3.00
2023-03-11T22:00:10.990Z,5.38
2023-03-11T22:04:14.472Z,2.80
2023-03-11T22:08:18.063Z,3.25
2023-03-11T22:12:21.572Z,3.85
2023-03-11T22:16:25.799Z,4.63
2023-03-11T22:20:29.665Z,3.92
2023-03-11T22:24:33.226Z,4.05
2023-03-11T22:28:37.049Z,6.07
2023-03-11T22:32:41.307Z,5.88
2023-03-11T22:36:45.678Z,4.65
2023-03-11T22:40:49.557Z,6.40
2023-03-11T22:44:53.033Z,5.05
2023-03-11T22:48:56.464Z,5.20
2023-03-11T22:53:00.302Z,7.13
2023-03-11T22:57:03.890Z,5.28
2023-03-11T23:01:08.458Z,5.13
2023-03-11T23:05:13.552Z,5.82
2023-03-11T23:09:17.096Z,5.00
2023-03-11T23:13:20.907Z,4.18
2023-03-11T23:17:24.368Z,4.43
2023-03-11T23:21:32.109Z,4.32
2023-03-11T23:25:36.636Z,2.70
2023-03-11T23:29:40.170Z,7.60
2023-03-11T23:33:44.444Z,5.07
2023-03-11T23:37:49.273Z,3.90
2023-03-11T23:41:53.654Z,5.00
2023-03-11T23:45:57.216Z,4.55
2023-03-11T23:50:01.505Z,4.55
2023-03-11T23:54:06.123Z,4.63
2023-03-11T23:58:10.000Z,2.97
